createdAt,value
2018-05-21T00:00:28.263Z,0.00
2018-05-21T00:01:28.243Z,0.00
2018-05-21T00:02:28.243Z,0.00
2018-05-21T00:03:28.234Z,0.00
2018-05-21T00:04:28.221Z,0.00
2018-05-21T00:05:28.205Z,0.00
2018-05-21T00:06:28.186Z,0.00
2018-05-21T00:07:28.169Z,0.00
2018-05-21T00:08:28.296Z,0.00
2018-05-21T00:09:28.141Z,0.00
2018-05-21T00:10:28.128Z,0.00
2018-05-21T00:11:28.121Z,0.00
2018-05-21T00:12:28.112Z,0.00
2018-05-21T00:13:28.093Z,0.00
2018-05-21T00:14:28.078Z,0.00
2018-05-21T00:15:28.068Z,0.00
2018-05-21T00:16:28.062Z,0.00
2018-05-21T00:17:28.041Z,0.00
2018-05-21T00:18:28.129Z,0.00
2018-05-21T00:19:28.013Z,0.00
2018-05-21T00:20:28.003Z,0.00
2018-05-21T00:21:27.990Z,0.00
2018-05-21T00:22:27.978Z,0.00
2018-05-21T00:23:27.958Z,0.00
2018-05-21T00:24:28.055Z,0.00
2018-05-21T00:25:27.937Z,0.00
2018-05-21T00:26:27.949Z,0.00
2018-05-21T00:27:27.904Z,0.00
2018-05-21T00:28:27.994Z,0.00
2018-05-21T00:29:27.901Z,0.00
2018-05-21T00:30:27.972Z,0.00
2018-05-21T00:31:27.862Z,0.00
2018-05-21T00:32:27.845Z,0.00
2018-05-21T00:33:27.834Z,0.00
2018-05-21T00:34:27.819Z,0.00
2018-05-21T00:35:27.808Z,0.00
2018-05-21T00:36:27.788Z,0.00
2018-05-21T00:37:27.783Z,0.00
2018-05-21T00:38:27.760Z,0.00
2018-05-21T00:39:27.747Z,0.00
2018-05-21T00:40:27.734Z,0.00
2018-05-21T00:41:27.722Z,0.00
2018-05-21T00:42:27.712Z,0.00
2018-05-21T00:43:27.693Z,0.00
2018-05-21T00:44:27.682Z,0.00
2018-05-21T00:45:27.664Z,0.00
2018-05-21T00:46:27.660Z,0.00
2018-05-21T00:47:27.644Z,0.00
2018-05-21T00:48:27.628Z,0.00
2018-05-21T00:49:27.625Z,0.00
2018-05-21T00:50:27.602Z,0.00
2018-05-21T00:51:27.593Z,0.00
2018-05-21T00:52:27.579Z,0.00
2018-05-21T00:53:27.561Z,0.00
2018-05-21T00:54:27.548Z,0.00
2018-05-21T00:55:27.528Z,0.00
2018-05-21T00:56:27.523Z,0.00
2018-05-21T00:57:27.513Z,0.00
2018-05-21T00:58:27.493Z,0.00
2018-05-21T00:59:27.483Z,0.00
2018-05-21T01:00:27.466Z,0.00
2018-05-21T01:01:27.447Z,0.00
2018-05-21T01:02:27.443Z,0.00
2018-05-21T01:03:27.428Z,0.00
2018-05-21T01:04:27.413Z,0.00
2018-05-21T01:05:27.400Z,0.00
2018-05-21T01:06:27.393Z,0.00
2018-05-21T01:07:27.377Z,0.00
2018-05-21T01:08:27.358Z,0.00
2018-05-21T01:09:27.345Z,0.00
2018-05-21T01:10:27.335Z,0.00
2018-05-21T01:11:27.320Z,0.00
2018-05-21T01:12:27.310Z,0.00
2018-05-21T01:13:27.296Z,0.00
2018-05-21T01:14:27.278Z,0.00
2018-05-21T01:15:27.272Z,0.00
2018-05-21T01:16:27.252Z,0.00
2018-05-21T01:17:27.238Z,0.00
2018-05-21T01:18:27.217Z,0.00
2018-05-21T01:19:27.214Z,0.00
2018-05-21T01:20:27.198Z,0.00
2018-05-21T01:21:27.179Z,0.00
2018-05-21T01:22:27.178Z,0.00
2018-05-21T01:23:27.154Z,0.00
2018-05-21T01:24:27.142Z,0.00
2018-05-21T01:25:27.126Z,0.00
2018-05-21T01:26:27.116Z,0.00
2018-05-21T01:27:27.096Z,0.00
2018-05-21T01:28:27.093Z,0.00
2018-05-21T01:29:27.074Z,0.00
2018-05-21T01:30:27.057Z,0.00
2018-05-21T01:31:27.047Z,0.00
2018-05-21T01:32:27.035Z,0.00
2018-05-21T01:33:27.022Z,0.00
2018-05-21T01:34:27.001Z,0.00
2018-05-21T01:35:27.012Z,0.00
2018-05-21T01:36:26.983Z,0.00
2018-05-21T01:37:26.984Z,0.00
2018-05-21T01:38:26.952Z,0.00
2018-05-21T01:39:26.962Z,0.00
2018-05-21T01:40:26.928Z,0.00
2018-05-21T01:41:26.906Z,0.00
2018-05-21T01:42:26.900Z,0.00
2018-05-21T01:43:26.881Z,0.00
2018-05-21T01:44:26.862Z,0.00
2018-05-21T01:45:26.907Z,0.00
2018-05-21T01:46:26.840Z,0.00
2018-05-21T01:47:26.929Z,0.00
2018-05-21T01:48:26.808Z,0.00
2018-05-21T01:49:26.795Z,0.00
2018-05-21T01:50:26.785Z,0.00
2018-05-21T01:51:26.818Z,0.00
2018-05-21T01:52:26.757Z,0.00
2018-05-21T01:53:26.803Z,0.00
2018-05-21T01:54:26.728Z,0.00
2018-05-21T01:55:26.721Z,0.00
2018-05-21T01:56:26.703Z,0.00
2018-05-21T01:57:26.789Z,0.00
2018-05-21T01:58:26.680Z,0.00
2018-05-21T01:59:26.714Z,0.00
2018-05-21T02:00:26.649Z,0.00
2018-05-21T02:01:26.650Z,0.00
2018-05-21T02:02:26.624Z,0.00
2018-05-21T02:03:26.659Z,0.00
2018-05-21T02:04:26.591Z,0.00
2018-05-21T02:05:26.576Z,0.00
2018-05-21T02:06:26.561Z,0.00
2018-05-21T02:07:26.543Z,0.00
2018-05-21T02:08:26.578Z,0.00
2018-05-21T02:09:26.517Z,0.00
2018-05-21T02:10:26.512Z,0.00
2018-05-21T02:11:26.500Z,0.00
2018-05-21T02:12:26.479Z,0.00
2018-05-21T02:13:26.466Z,0.00
2018-05-21T02:14:26.454Z,0.00
2018-05-21T02:15:26.440Z,0.00
2018-05-21T02:16:26.428Z,0.00
2018-05-21T02:17:26.431Z,0.00
2018-05-21T02:18:26.398Z,0.00
2018-05-21T02:19:26.383Z,0.00
2018-05-21T02:20:26.373Z,0.00
2018-05-21T02:21:26.366Z,0.00
2018-05-21T02:22:26.338Z,0.00
2018-05-21T02:23:26.327Z,0.00
2018-05-21T02:24:26.322Z,0.00
2018-05-21T02:25:26.312Z,0.00
2018-05-21T02:26:26.281Z,0.00
2018-05-21T02:27:26.279Z,0.00
2018-05-21T02:28:26.260Z,0.00
2018-05-21T02:29:26.246Z,0.00
2018-05-21T02:30:26.233Z,0.00
2018-05-21T02:31:26.221Z,0.00
2018-05-21T02:32:26.205Z,0.00
2018-05-21T02:33:26.189Z,0.00
2018-05-21T02:34:26.171Z,0.00
2018-05-21T02:35:26.165Z,0.00
2018-05-21T02:36:26.141Z,0.00
2018-05-21T02:37:26.128Z,0.00
2018-05-21T02:38:26.116Z,0.00
2018-05-21T02:39:26.098Z,0.00
2018-05-21T02:40:26.092Z,0.00
2018-05-21T02:41:26.085Z,0.00
2018-05-21T02:42:26.064Z,0.00
2018-05-21T02:43:26.053Z,0.00
2018-05-21T02:44:26.038Z,0.00
2018-05-21T02:45:26.018Z,0.00
2018-05-21T02:46:26.009Z,0.00
2018-05-21T02:47:25.992Z,0.00
2018-05-21T02:48:25.977Z,0.00
2018-05-21T02:49:25.963Z,0.00
2018-05-21T02:50:25.948Z,0.00
2018-05-21T02:51:25.935Z,0.00
2018-05-21T02:52:25.932Z,0.00
2018-05-21T02:53:25.907Z,4.00
2018-05-21T02:54:25.885Z,4.00
2018-05-21T02:55:25.882Z,4.00
2018-05-21T02:56:25.869Z,0.00
2018-05-21T02:57:25.846Z,0.00
2018-05-21T02:58:25.837Z,4.00
2018-05-21T02:59:25.821Z,4.00
2018-05-21T03:00:25.812Z,4.00
2018-05-21T03:01:25.796Z,4.00
2018-05-21T03:02:25.780Z,8.00
2018-05-21T03:03:25.770Z,4.00
2018-05-21T03:04:25.752Z,8.00
2018-05-21T03:05:25.751Z,8.00
2018-05-21T03:06:25.725Z,8.00
2018-05-21T03:07:25.706Z,12.00
2018-05-21T03:08:25.694Z,12.00
2018-05-21T03:09:25.681Z,16.00
2018-05-21T03:10:25.664Z,16.00
2018-05-21T03:11:25.645Z,20.00
2018-05-21T03:12:25.642Z,20.00
2018-05-21T03:13:25.624Z,20.00
2018-05-21T03:14:25.613Z,28.00
2018-05-21T03:15:25.594Z,28.00
2018-05-21T03:16:25.583Z,32.00
2018-05-21T03:17:25.567Z,36.00
2018-05-21T03:18:25.552Z,36.00
2018-05-21T03:19:25.539Z,44.00
2018-05-21T03:20:25.574Z,48.00
2018-05-21T03:21:25.508Z,52.00
2018-05-21T03:22:25.543Z,60.00
2018-05-21T03:23:25.472Z,64.00
2018-05-21T03:24:25.524Z,72.00
2018-05-21T03:25:25.453Z,80.00
2018-05-21T03:26:25.496Z,84.00
2018-05-21T03:27:25.420Z,92.00
2018-05-21T03:28:25.471Z,104.00
2018-05-21T03:29:25.390Z,108.00
2018-05-21T03:30:25.479Z,120.00
2018-05-21T03:31:25.373Z,128.00
2018-05-21T03:32:25.401Z,140.00
2018-05-21T03:33:25.338Z,152.00
2018-05-21T03:34:25.438Z,160.00
2018-05-21T03:35:25.312Z,176.00
2018-05-21T03:36:25.294Z,188.00
2018-05-21T03:37:25.277Z,200.00
2018-05-21T03:38:25.270Z,212.00
2018-05-21T03:39:25.256Z,224.00
2018-05-21T03:40:25.241Z,236.00
2018-05-21T03:41:25.221Z,252.00
2018-05-21T03:42:25.263Z,268.00
2018-05-21T03:43:25.200Z,280.00
2018-05-21T03:44:25.177Z,296.00
2018-05-21T03:45:25.161Z,312.00
2018-05-21T03:46:25.203Z,328.00
2018-05-21T03:47:25.133Z,348.00
2018-05-21T03:48:25.119Z,360.00
2018-05-21T03:49:25.106Z,380.00
2018-05-21T03:50:25.089Z,392.00
2018-05-21T03:51:25.089Z,412.00
2018-05-21T03:52:25.061Z,428.00
2018-05-21T03:53:25.048Z,448.00
2018-05-21T03:54:25.032Z,468.00
2018-05-21T03:55:25.022Z,484.00
2018-05-21T03:56:25.003Z,504.00
2018-05-21T03:57:24.994Z,520.00
2018-05-21T03:58:24.971Z,544.00
2018-05-21T03:59:24.958Z,560.00
2018-05-21T04:00:24.946Z,580.00
2018-05-21T04:01:24.927Z,596.00
2018-05-21T04:02:24.920Z,616.00
2018-05-21T04:03:24.910Z,640.00
2018-05-21T04:04:24.976Z,656.00
2018-05-21T04:05:24.881Z,676.00
2018-05-21T04:06:24.862Z,700.00
2018-05-21T04:07:24.844Z,720.00
2018-05-21T04:08:24.824Z,740.00
2018-05-21T04:09:24.817Z,760.00
2018-05-21T04:10:24.802Z,784.00
2018-05-21T04:11:24.836Z,788.00
2018-05-21T04:12:24.774Z,824.00
2018-05-21T04:13:24.768Z,844.00
2018-05-21T04:14:24.748Z,864.00
2018-05-21T04:15:24.729Z,888.00
2018-05-21T04:16:24.720Z,904.00
2018-05-21T04:17:24.709Z,928.00
2018-05-21T04:18:24.687Z,948.00
2018-05-21T04:19:24.667Z,972.00
2018-05-21T04:20:24.663Z,992.00
2018-05-21T04:21:24.643Z,1012.00
2018-05-21T04:22:24.633Z,1032.00
2018-05-21T04:23:24.610Z,1056.00
2018-05-21T04:24:24.597Z,1076.00
2018-05-21T04:25:24.591Z,1100.00
2018-05-21T04:26:24.568Z,1120.00
2018-05-21T04:27:24.560Z,1140.00
2018-05-21T04:28:24.541Z,1160.00
2018-05-21T04:29:24.533Z,1180.00
2018-05-21T04:30:24.521Z,1204.00
2018-05-21T04:31:24.502Z,1220.00
2018-05-21T04:32:24.490Z,1244.00
2018-05-21T04:33:24.474Z,1264.00
2018-05-21T04:34:24.454Z,1284.00
2018-05-21T04:35:24.438Z,1308.00
2018-05-21T04:36:24.456Z,1328.00
2018-05-21T04:37:24.417Z,1348.00
2018-05-21T04:38:24.403Z,1368.00
2018-05-21T04:39:24.393Z,1392.00
2018-05-21T04:40:24.373Z,1408.00
2018-05-21T04:41:24.358Z,1428.00
2018-05-21T04:42:24.336Z,1448.00
2018-05-21T04:43:24.329Z,1468.00
2018-05-21T04:44:24.314Z,1488.00
2018-05-21T04:45:24.301Z,1508.00
2018-05-21T04:46:24.288Z,1524.00
2018-05-21T04:47:24.274Z,1544.00
2018-05-21T04:48:24.257Z,1564.00
2018-05-21T04:49:24.254Z,1580.00
2018-05-21T04:50:24.231Z,1600.00
2018-05-21T04:51:24.219Z,1620.00
2018-05-21T04:52:24.203Z,1640.00
2018-05-21T04:53:24.193Z,1660.00
2018-05-21T04:54:24.167Z,1680.00
2018-05-21T04:55:24.164Z,1700.00
2018-05-21T04:56:24.144Z,1724.00
2018-05-21T04:57:24.132Z,1748.00
2018-05-21T04:58:24.116Z,1772.00
2018-05-21T04:59:24.100Z,1792.00
2018-05-21T05:00:24.089Z,1816.00
2018-05-21T05:01:24.074Z,1840.00
2018-05-21T05:02:24.065Z,1864.00
2018-05-21T05:03:24.041Z,1884.00
2018-05-21T05:04:24.034Z,1904.00
2018-05-21T05:05:24.067Z,1936.00
2018-05-21T05:06:24.000Z,1952.00
2018-05-21T05:07:24.025Z,1976.00
2018-05-21T05:08:23.973Z,1996.00
2018-05-21T05:09:23.993Z,2020.00
2018-05-21T05:10:23.938Z,2040.00
2018-05-21T05:11:24.035Z,2060.00
2018-05-21T05:12:23.916Z,2080.00
2018-05-21T05:13:23.956Z,2100.00
2018-05-21T05:14:23.896Z,2120.00
2018-05-21T05:15:23.941Z,2144.00
2018-05-21T05:16:23.865Z,2160.00
2018-05-21T05:17:23.863Z,2184.00
2018-05-21T05:18:23.829Z,2200.00
2018-05-21T05:19:23.818Z,2224.00
2018-05-21T05:20:23.798Z,2244.00
2018-05-21T05:21:23.841Z,2260.00
2018-05-21T05:22:23.781Z,2280.00
2018-05-21T05:23:23.764Z,2296.00
2018-05-21T05:24:23.751Z,2316.00
2018-05-21T05:25:23.783Z,2332.00
2018-05-21T05:26:23.721Z,2356.00
2018-05-21T05:27:23.706Z,2372.00
2018-05-21T05:28:23.698Z,2392.00
2018-05-21T05:29:23.683Z,2408.00
2018-05-21T05:30:23.664Z,2432.00
2018-05-21T05:31:23.645Z,2452.00
2018-05-21T05:32:23.636Z,2472.00
2018-05-21T05:33:23.623Z,2492.00
2018-05-21T05:34:23.609Z,2516.00
2018-05-21T05:35:23.593Z,2540.00
2018-05-21T05:36:23.578Z,2560.00
2018-05-21T05:37:23.575Z,2584.00
2018-05-21T05:38:23.552Z,2608.00
2018-05-21T05:39:23.539Z,2628.00
2018-05-21T05:40:23.523Z,2648.00
2018-05-21T05:41:23.510Z,2664.00
2018-05-21T05:42:23.494Z,2688.00
2018-05-21T05:43:23.483Z,2708.00
2018-05-21T05:44:23.467Z,2732.00
2018-05-21T05:45:23.461Z,2756.00
2018-05-21T05:46:23.448Z,2780.00
2018-05-21T05:47:23.426Z,2804.00
2018-05-21T05:48:23.423Z,2828.00
2018-05-21T05:49:23.403Z,2856.00
2018-05-21T05:50:23.393Z,2876.00
2018-05-21T05:51:23.384Z,2904.00
2018-05-21T05:52:23.362Z,2924.00
2018-05-21T05:53:23.351Z,2952.00
2018-05-21T05:54:23.342Z,2984.00
2018-05-21T05:55:23.326Z,3008.00
2018-05-21T05:56:23.307Z,3020.00
2018-05-21T05:57:23.298Z,3048.00
2018-05-21T05:58:23.287Z,3072.00
2018-05-21T05:59:23.274Z,3092.00
2018-05-21T06:00:23.256Z,3116.00
2018-05-21T06:01:23.251Z,3140.00
2018-05-21T06:02:23.227Z,3164.00
2018-05-21T06:03:23.216Z,3188.00
2018-05-21T06:04:23.195Z,3216.00
2018-05-21T06:05:23.189Z,3236.00
2018-05-21T06:06:23.173Z,3260.00
2018-05-21T06:07:23.173Z,3280.00
2018-05-21T06:08:23.144Z,3304.00
2018-05-21T06:09:23.134Z,3324.00
2018-05-21T06:10:23.121Z,3356.00
2018-05-21T06:11:23.112Z,3380.00
2018-05-21T06:12:23.103Z,3404.00
2018-05-21T06:13:23.087Z,3428.00
2018-05-21T06:14:23.067Z,3452.00
2018-05-21T06:15:23.058Z,3480.00
2018-05-21T06:16:23.041Z,3500.00
2018-05-21T06:17:23.032Z,3524.00
2018-05-21T06:18:23.013Z,3548.00
2018-05-21T06:19:23.008Z,3576.00
2018-05-21T06:20:23.005Z,3600.00
2018-05-21T06:21:22.980Z,3624.00
2018-05-21T06:22:22.962Z,3656.00
2018-05-21T06:23:22.945Z,3688.00
2018-05-21T06:24:22.939Z,3704.00
2018-05-21T06:25:22.919Z,3736.00
2018-05-21T06:26:22.916Z,3768.00
2018-05-21T06:27:22.905Z,3800.00
2018-05-21T06:28:22.890Z,3836.00
2018-05-21T06:29:22.873Z,3872.00
2018-05-21T06:30:22.867Z,3892.00
2018-05-21T06:31:22.851Z,3944.00
2018-05-21T06:32:22.836Z,3976.00
2018-05-21T06:33:22.816Z,4012.00
2018-05-21T06:34:22.942Z,4056.00
2018-05-21T06:35:22.793Z,4096.00
2018-05-21T06:36:22.792Z,4136.00
2018-05-21T06:37:22.771Z,4172.00
2018-05-21T06:38:22.752Z,4184.00
2018-05-21T06:39:22.740Z,4240.00
2018-05-21T06:40:22.737Z,4264.00
2018-05-21T06:41:22.713Z,4304.00
2018-05-21T06:42:22.702Z,4328.00
2018-05-21T06:43:22.694Z,4356.00
2018-05-21T06:44:22.678Z,4396.00
2018-05-21T06:45:22.667Z,4424.00
2018-05-21T06:46:22.663Z,4460.00
2018-05-21T06:47:22.643Z,4496.00
2018-05-21T06:48:22.630Z,4532.00
2018-05-21T06:49:22.617Z,4556.00
2018-05-21T06:50:22.604Z,4572.00
2018-05-21T06:51:22.646Z,4600.00
2018-05-21T06:52:22.588Z,4640.00
2018-05-21T06:53:22.572Z,4672.00
2018-05-21T06:54:22.560Z,4696.00
2018-05-21T06:55:22.540Z,4720.00
2018-05-21T06:56:22.527Z,4736.00
2018-05-21T06:57:22.516Z,4780.00
2018-05-21T06:58:22.505Z,4816.00
2018-05-21T06:59:22.503Z,4840.00
2018-05-21T07:00:22.480Z,4872.00
2018-05-21T07:01:22.467Z,4904.00
2018-05-21T07:02:22.458Z,4940.00
2018-05-21T07:03:22.447Z,4964.00
2018-05-21T07:04:22.430Z,4984.00
2018-05-21T07:05:22.421Z,5012.00
2018-05-21T07:06:22.409Z,5040.00
2018-05-21T07:07:22.396Z,5068.00
2018-05-21T07:08:22.378Z,5092.00
2018-05-21T07:09:22.377Z,5124.00
2018-05-21T07:10:22.363Z,5132.00
2018-05-21T07:11:22.348Z,5164.00
2018-05-21T07:12:22.342Z,5188.00
2018-05-21T07:13:22.326Z,5228.00
2018-05-21T07:14:22.310Z,5264.00
2018-05-21T07:15:22.301Z,5272.00
2018-05-21T07:16:22.295Z,5292.00
2018-05-21T07:17:22.281Z,5328.00
2018-05-21T07:18:22.268Z,5360.00
2018-05-21T07:19:22.246Z,5368.00
2018-05-21T07:20:22.243Z,5400.00
2018-05-21T07:21:22.231Z,5432.00
2018-05-21T07:22:22.218Z,5460.00
2018-05-21T07:23:22.207Z,5472.00
2018-05-21T07:24:22.281Z,5500.00
2018-05-21T07:25:22.234Z,5532.00
2018-05-21T07:26:22.167Z,5568.00
2018-05-21T07:27:22.164Z,5596.00
2018-05-21T07:28:22.149Z,5636.00
2018-05-21T07:29:22.139Z,5660.00
2018-05-21T07:30:22.125Z,5720.00
2018-05-21T07:31:22.169Z,5736.00
2018-05-21T07:32:22.095Z,5752.00
2018-05-21T07:33:22.097Z,5772.00
2018-05-21T07:34:22.081Z,5800.00
2018-05-21T07:35:22.065Z,5824.00
2018-05-21T07:36:22.058Z,5844.00
2018-05-21T07:37:22.192Z,5876.00
2018-05-21T07:38:22.026Z,5908.00
2018-05-21T07:39:22.022Z,5920.00
2018-05-21T07:40:22.011Z,5952.00
2018-05-21T07:41:21.998Z,5988.00
2018-05-21T07:42:21.984Z,6016.00
2018-05-21T07:43:21.982Z,6044.00
2018-05-21T07:44:21.971Z,6076.00
2018-05-21T07:45:21.954Z,6116.00
2018-05-21T07:46:21.941Z,6136.00
2018-05-21T07:47:21.934Z,6156.00
2018-05-21T07:48:21.922Z,6192.00
2018-05-21T07:49:21.908Z,6232.00
2018-05-21T07:50:21.895Z,6280.00
2018-05-21T07:51:21.981Z,6336.00
2018-05-21T07:52:21.876Z,6380.00
2018-05-21T07:53:21.871Z,6408.00
2018-05-21T07:54:21.861Z,6428.00
2018-05-21T07:55:21.848Z,6452.00
2018-05-21T07:56:21.829Z,6500.00
2018-05-21T07:57:21.816Z,6508.00
2018-05-21T07:58:21.857Z,6532.00
2018-05-21T07:59:21.794Z,6568.00
2018-05-21T08:00:21.790Z,6612.00
2018-05-21T08:01:21.775Z,6648.00
2018-05-21T08:02:21.768Z,6680.00
2018-05-21T08:03:21.762Z,6736.00
2018-05-21T08:04:21.746Z,6776.00
2018-05-21T08:05:21.750Z,6820.00
2018-05-21T08:06:21.727Z,6852.00
2018-05-21T08:07:21.717Z,6892.00
2018-05-21T08:08:21.707Z,6888.00
2018-05-21T08:09:21.692Z,6940.00
2018-05-21T08:10:21.685Z,6972.00
2018-05-21T08:11:21.675Z,6992.00
2018-05-21T08:12:21.675Z,7024.00
2018-05-21T08:13:21.662Z,7056.00
2018-05-21T08:14:21.658Z,7084.00
2018-05-21T08:15:21.633Z,7108.00
2018-05-21T08:16:21.627Z,7156.00
2018-05-21T08:17:21.617Z,7200.00
2018-05-21T08:18:21.610Z,7244.00
2018-05-21T08:19:21.601Z,7304.00
2018-05-21T08:20:21.591Z,7388.00
2018-05-21T08:21:21.582Z,7484.00
2018-05-21T08:22:21.581Z,7572.00
2018-05-21T08:23:21.572Z,7672.00
2018-05-21T08:24:21.556Z,7792.00
2018-05-21T08:25:21.547Z,7932.00
2018-05-21T08:26:21.547Z,8108.00
2018-05-21T08:27:21.537Z,8288.00
2018-05-21T08:28:21.533Z,8560.00
2018-05-21T08:29:21.525Z,11496.00
2018-05-21T08:30:21.522Z,18400.00
2018-05-21T08:31:21.521Z,29376.00
2018-05-21T08:32:21.512Z,39616.00
2018-05-21T08:33:21.510Z,48192.00
2018-05-21T08:34:21.502Z,59936.00
2018-05-21T08:35:21.495Z,70816.00
2018-05-21T08:36:21.492Z,73824.00
2018-05-21T08:37:21.496Z,74016.00
2018-05-21T08:38:21.498Z,74304.00
2018-05-21T08:39:21.488Z,74304.00
2018-05-21T08:40:21.479Z,77376.00
2018-05-21T08:41:21.477Z,75968.00
2018-05-21T08:42:21.474Z,76032.00
2018-05-21T08:43:21.481Z,77024.00
2018-05-21T08:44:21.471Z,76416.00
2018-05-21T08:45:21.471Z,75776.00
2018-05-21T08:46:21.470Z,76064.00
2018-05-21T08:47:21.469Z,75744.00
2018-05-21T08:48:21.470Z,69856.00
2018-05-21T08:49:21.464Z,67424.00
2018-05-21T08:50:21.460Z,72384.00
2018-05-21T08:51:21.458Z,68896.00
2018-05-21T08:52:21.553Z,66464.00
2018-05-21T08:53:21.463Z,71712.00
2018-05-21T08:54:21.464Z,72032.00
2018-05-21T08:55:21.461Z,67200.00
2018-05-21T08:56:21.461Z,67040.00
2018-05-21T08:57:21.461Z,64864.00
2018-05-21T08:58:21.470Z,65824.00
2018-05-21T08:59:21.461Z,75552.00
2018-05-21T09:00:21.550Z,81184.00
2018-05-21T09:01:21.458Z,81376.00
2018-05-21T09:02:21.458Z,80608.00
2018-05-21T09:03:21.461Z,48448.00
2018-05-21T09:04:21.461Z,24064.00
2018-05-21T09:05:21.510Z,22080.00
2018-05-21T09:06:21.465Z,22592.00
2018-05-21T09:07:21.471Z,24096.00
2018-05-21T09:08:21.471Z,25888.00
2018-05-21T09:09:21.464Z,26464.00
2018-05-21T09:10:21.470Z,26752.00
2018-05-21T09:11:21.464Z,28768.00
2018-05-21T09:12:21.477Z,32224.00
2018-05-21T09:13:21.468Z,35808.00
2018-05-21T09:14:21.467Z,37856.00
2018-05-21T09:15:21.464Z,37664.00
2018-05-21T09:16:21.528Z,39904.00
2018-05-21T09:17:21.464Z,41664.00
2018-05-21T09:18:21.470Z,45472.00
2018-05-21T09:19:21.467Z,49312.00
2018-05-21T09:20:21.471Z,49984.00
2018-05-21T09:21:21.465Z,48864.00
2018-05-21T09:22:21.469Z,50496.00
2018-05-21T09:23:21.465Z,48960.00
2018-05-21T09:24:21.524Z,46272.00
2018-05-21T09:25:21.459Z,47328.00
2018-05-21T09:26:21.556Z,49088.00
2018-05-21T09:27:21.458Z,52704.00
2018-05-21T09:28:21.512Z,52128.00
2018-05-21T09:29:21.462Z,50240.00
2018-05-21T09:30:21.518Z,45536.00
2018-05-21T09:31:21.453Z,48384.00
2018-05-21T09:32:21.510Z,48416.00
2018-05-21T09:33:21.461Z,44736.00
2018-05-21T09:34:21.448Z,46624.00
2018-05-21T09:35:21.446Z,49376.00
2018-05-21T09:36:21.502Z,47552.00
2018-05-21T09:37:21.446Z,49728.00
2018-05-21T09:38:21.452Z,49984.00
2018-05-21T09:39:21.433Z,50176.00
2018-05-21T09:40:21.432Z,50848.00
2018-05-21T09:41:21.436Z,51008.00
2018-05-21T09:42:21.440Z,50592.00
2018-05-21T09:43:21.427Z,47360.00
2018-05-21T09:44:21.430Z,42400.00
2018-05-21T09:45:21.428Z,44256.00
2018-05-21T09:46:21.420Z,47840.00
2018-05-21T09:47:21.416Z,43968.00
2018-05-21T09:48:21.417Z,43136.00
2018-05-21T09:49:21.416Z,44672.00
2018-05-21T09:50:21.410Z,38464.00
2018-05-21T09:51:21.407Z,27168.00
2018-05-21T09:52:21.401Z,16832.00
2018-05-21T09:53:21.446Z,6320.00
2018-05-21T09:54:21.396Z,13980.00
2018-05-21T09:55:21.391Z,13612.00
2018-05-21T09:56:21.384Z,13624.00
2018-05-21T09:57:21.401Z,13356.00
2018-05-21T09:58:21.373Z,13240.00
2018-05-21T09:59:21.376Z,13044.00
2018-05-21T10:00:21.366Z,12524.00
2018-05-21T10:01:21.417Z,12160.00
2018-05-21T10:02:21.356Z,11952.00
2018-05-21T10:03:21.350Z,11804.00
2018-05-21T10:04:21.350Z,11752.00
2018-05-21T10:05:21.348Z,11552.00
2018-05-21T10:06:21.340Z,11104.00
2018-05-21T10:07:21.340Z,10884.00
2018-05-21T10:08:21.327Z,10808.00
2018-05-21T10:09:21.331Z,10528.00
2018-05-21T10:10:21.321Z,10588.00
2018-05-21T10:11:21.314Z,10464.00
2018-05-21T10:12:21.311Z,10400.00
2018-05-21T10:13:21.308Z,10272.00
2018-05-21T10:14:21.298Z,10204.00
2018-05-21T10:15:21.298Z,10208.00
2018-05-21T10:16:21.285Z,10280.00
2018-05-21T10:17:21.281Z,10264.00
2018-05-21T10:18:21.275Z,10208.00
2018-05-21T10:19:21.274Z,10076.00
2018-05-21T10:20:21.270Z,9956.00
2018-05-21T10:21:21.260Z,9892.00
2018-05-21T10:22:21.254Z,9860.00
2018-05-21T10:23:21.250Z,9800.00
2018-05-21T10:24:21.251Z,9640.00
2018-05-21T10:25:21.240Z,9520.00
2018-05-21T10:26:21.290Z,9392.00
2018-05-21T10:27:21.222Z,9236.00
2018-05-21T10:28:21.269Z,9172.00
2018-05-21T10:29:21.216Z,9124.00
2018-05-21T10:30:21.279Z,9016.00
2018-05-21T10:31:21.202Z,8940.00
2018-05-21T10:32:21.344Z,9008.00
2018-05-21T10:33:21.189Z,9032.00
2018-05-21T10:34:21.178Z,8988.00
2018-05-21T10:35:21.174Z,8916.00
2018-05-21T10:36:21.170Z,8864.00
2018-05-21T10:37:21.260Z,8684.00
2018-05-21T10:38:21.161Z,8788.00
2018-05-21T10:39:21.151Z,8688.00
2018-05-21T10:40:21.148Z,8676.00
2018-05-21T10:41:21.138Z,8808.00
2018-05-21T10:42:21.141Z,8732.00
2018-05-21T10:43:21.128Z,8504.00
2018-05-21T10:44:21.122Z,8428.00
2018-05-21T10:45:21.113Z,8536.00
2018-05-21T10:46:21.107Z,8488.00
2018-05-21T10:47:21.104Z,8404.00
2018-05-21T10:48:21.092Z,8516.00
2018-05-21T10:49:21.095Z,8492.00
2018-05-21T10:50:21.086Z,8460.00
2018-05-21T10:51:21.109Z,8476.00
2018-05-21T10:52:21.070Z,8420.00
2018-05-21T10:53:21.067Z,8456.00
2018-05-21T10:54:21.061Z,8420.00
2018-05-21T10:55:21.052Z,8480.00
2018-05-21T10:56:21.142Z,8576.00
2018-05-21T10:57:21.041Z,8384.00
2018-05-21T10:58:21.038Z,8344.00
2018-05-21T10:59:21.025Z,8456.00
2018-05-21T11:00:21.016Z,8440.00
2018-05-21T11:01:21.016Z,8464.00
2018-05-21T11:02:21.003Z,8476.00
2018-05-21T11:03:21.009Z,8460.00
2018-05-21T11:04:20.997Z,8488.00
2018-05-21T11:05:20.990Z,8676.00
2018-05-21T11:06:20.981Z,8672.00
2018-05-21T11:07:20.974Z,8644.00
2018-05-21T11:08:20.968Z,8584.00
2018-05-21T11:09:20.965Z,8592.00
2018-05-21T11:10:20.956Z,8564.00
2018-05-21T11:11:20.945Z,8580.00
2018-05-21T11:12:20.946Z,8584.00
2018-05-21T11:13:20.946Z,8560.00
2018-05-21T11:14:20.934Z,8552.00
2018-05-21T11:15:20.922Z,8564.00
2018-05-21T11:16:20.920Z,8540.00
2018-05-21T11:17:20.910Z,8612.00
2018-05-21T11:18:20.896Z,8676.00
2018-05-21T11:19:20.901Z,8664.00
2018-05-21T11:20:20.890Z,8608.00
2018-05-21T11:21:20.887Z,8640.00
2018-05-21T11:22:20.880Z,8576.00
2018-05-21T11:23:20.876Z,8552.00
2018-05-21T11:24:20.867Z,8524.00
2018-05-21T11:25:20.862Z,8476.00
2018-05-21T11:26:20.851Z,8508.00
2018-05-21T11:27:20.862Z,8500.00
2018-05-21T11:28:20.846Z,8508.00
2018-05-21T11:29:20.840Z,8480.00
2018-05-21T11:30:20.830Z,8504.00
2018-05-21T11:31:20.824Z,8548.00
2018-05-21T11:32:20.814Z,8580.00
2018-05-21T11:33:20.811Z,8568.00
2018-05-21T11:34:20.804Z,8628.00
2018-05-21T11:35:20.800Z,8596.00
2018-05-21T11:36:20.787Z,8612.00
2018-05-21T11:37:20.785Z,8632.00
2018-05-21T11:38:20.772Z,8620.00
2018-05-21T11:39:20.766Z,8620.00
2018-05-21T11:40:20.769Z,8612.00
2018-05-21T11:41:20.759Z,8620.00
2018-05-21T11:42:20.759Z,8676.00
2018-05-21T11:43:20.740Z,8616.00
2018-05-21T11:44:20.740Z,8664.00
2018-05-21T11:45:20.727Z,8668.00
2018-05-21T11:46:20.849Z,8628.00
2018-05-21T11:47:20.720Z,8620.00
2018-05-21T11:48:20.718Z,8596.00
2018-05-21T11:49:20.715Z,8608.00
2018-05-21T11:50:20.705Z,8616.00
2018-05-21T11:51:20.701Z,8568.00
2018-05-21T11:52:20.692Z,8672.00
2018-05-21T11:53:20.690Z,8656.00
2018-05-21T11:54:20.675Z,8664.00
2018-05-21T11:55:20.666Z,8660.00
2018-05-21T11:56:20.667Z,8680.00
2018-05-21T11:57:20.660Z,8628.00
2018-05-21T11:58:20.647Z,8636.00
2018-05-21T11:59:20.659Z,8692.00
2018-05-21T12:00:20.637Z,8628.00
2018-05-21T12:01:20.632Z,8560.00
2018-05-21T12:02:20.628Z,8548.00
2018-05-21T12:03:20.625Z,8616.00
2018-05-21T12:04:20.619Z,8624.00
2018-05-21T12:05:20.612Z,8512.00
2018-05-21T12:06:20.603Z,8536.00
2018-05-21T12:07:20.601Z,8572.00
2018-05-21T12:08:20.592Z,8540.00
2018-05-21T12:09:20.582Z,8576.00
2018-05-21T12:10:20.580Z,8564.00
2018-05-21T12:11:20.580Z,8572.00
2018-05-21T12:12:20.567Z,8604.00
2018-05-21T12:13:20.558Z,8592.00
2018-05-21T12:14:20.552Z,8652.00
2018-05-21T12:15:20.545Z,8596.00
2018-05-21T12:16:20.541Z,8636.00
2018-05-21T12:17:20.532Z,8628.00
2018-05-21T12:18:20.531Z,8632.00
2018-05-21T12:19:20.522Z,8632.00
2018-05-21T12:20:20.512Z,8576.00
2018-05-21T12:21:20.506Z,8132.00
2018-05-21T12:22:20.568Z,8384.00